EPCD weather

Depułtycze Królewskie Airport
Lublin, Poland

Public forecast

Using degrees Celsius for public forecast. Weather courtesy of forecast.io.

Closest aviation weather report (METAR) to Depułtycze Królewskie Airport

Report is more than 6 hours old.

Closest report is Brest Airport, 64.0 nm (118.5 km) NNE. Retrieved 2020/02/28 13:30 UTC (8 hours ago):

UMBB 281330Z 29005G08MPS 9000 BKN029CB 05/M01 Q1007 R29/290050 NOSIG

Closest aviation forecast (TAF) to Depułtycze Królewskie Airport

Forecast is more than 12 hours old.

Closest forecast is Brest Airport, 64.0 nm (118.5 km) NNE. Retrieved 2018/08/29 12:21 UTC (2 years ago):

TAF UMBB 291405Z 2912/2924 34005MPS 6000 BKN015 TEMPO 2915/2918 3000 -SHRA SCT020CB TEMPO 2918/2924 2000 BR BKN005